WEATHER DATA

TODAY
Time Temp. Dewp. Hum. Bar.
00:01 13.9 10.5 80 1013.1
00:11 14.1 10.9 81 1013
00:21 14.4 11 80 1013.2
00:31 14.5 11.1 80 1013.1
00:41 14.5 10.9 79 1013
00:51 14.2 10.8 80 1013.1
01:01 14.1 10.7 80 1013.2
01:12 14 10.6 80 1012.9
01:22 14 10.8 81 1012.9
01:31 14.1 10.9 81 1012.9
01:41 14.2 10.8 80 1012.8
01:52 14.3 10.9 80 1012.6
02:02 14.4 10.8 79 1012.5
02:12 14.4 10.8 79 1012.3
02:22 14.4 10.8 79 1012.3
02:33 14.2 10.6 79 1012.3
02:52 14.4 11 80 1012.1
03:03 14.2 10.8 80 1012
03:13 14.2 10.8 80 1012
03:23 14.3 11.1 81 1011.9
03:33 14.4 11 80 1011.9
03:43 14.5 11.1 80 1011.8
03:53 14.4 11 80 1011.7
04:03 14.2 10.8 80 1011.7
04:14 13.9 10.7 81 1011.5
04:24 13.6 10.6 82 1011.4
04:34 13.4 10.4 82 1011.5
04:44 13.1 10.3 83 1011.3
04:55 13 10.4 84 1011.4
05:04 13 10.4 84 1011.3
05:14 12.7 10.1 84 1011.4
05:24 12.5 9.9 84 1011.3
05:35 12.3 9.9 85 1011.2
05:45 12.3 10 86 1011.2
05:55 12.5 10.4 87 1011.2
06:05 12.5 10.4 87 1011.2
06:15 12.6 10.5 87 1011.1
06:25 12.8 10.7 87 1011.3
06:35 12.9 10.8 87 1010.9
06:46 13.1 11 87 1011
06:56 13.5 11.4 87 1011
07:05 13.9 11.8 87 1010.8
07:16 14.3 12 86 1010.8
07:26 14.6 12.1 85 1011
07:36 15.1 12.2 83 1010.9
07:46 15.7 12.3 80 1010.7
07:57 16.4 12.6 78 1010.8
08:07 17.1 12 72 1010.7
08:14 17.5 12.2 71 1010.9
08:26 17.9 11.5 66 1011
08:37 18.2 11.8 66 1010.9
08:47 18.4 11 62 1010.8
08:55 18.7 11 61 1010.8
09:07 19.1 11.4 61 1010.8
09:17 19.5 11.8 61 1010.8
09:27 19.9 11.4 58 1010.8
09:37 20.3 12 59 1011.1
09:46 21 12.2 57 1010.9
09:57 22.2 12.7 55 1011.1
10:07 22.9 13.4 55 1011.2
10:18 22.8 13 54 1011.1
10:27 22.8 13 54 1010.7
10:37 23 12.9 53 1010.7
10:46 23.3 13.5 54 1010.8
10:58 23.6 13.5 53 1010.8
11:08 23.9 13.2 51 1010.8
11:17 24.3 13.2 50 1010.5
11:27 24.6 13.5 50 1010.3
11:38 24.7 13.9 51 1010.2
11:48 25 14.2 51 1010.2
11:58 25 13.2 48 1010.2
12:08 25 13.6 49 1010.1
12:18 25.3 14.4 51 1010
12:28 25.5 14.3 50 1009.8
12:38 25.8 14.9 51 1009.9
12:48 26 14.5 49 1009.6
12:58 25.9 14.4 49 1009.7
13:08 26.1 14.9 50 1009.4
13:19 26.1 14.6 49 1009.5
13:28 25.8 14 48 1009.3
13:38 25.8 13.3 46 1009.2
13:48 25.7 13.6 47 1009
13:59 25.8 13 45 1009.2
14:08 25.7 13.6 47 1009.1
14:18 25.8 13.3 46 1009.2
14:29 25.5 12.7 45 1009.3
14:39 25.4 12.3 44 1009
14:48 25.3 12.5 45 1009
14:58 25.3 12.2 44 1008.9
15:09 25.1 11.7 43 1008.8
15:19 25 11.9 44 1008.7
15:28 25.2 11.7 43 1008.6
15:39 25.2 12.1 44 1008.4
15:49 25.2 11.7 43 1008.6
15:59 25.1 11.7 43 1008.4
16:09 25 12.3 45 1008.3
16:19 25 12.6 46 1008.2
16:29 24.9 12.5 46 1008.2
16:39 24.6 12.6 47 1008
16:49 24.3 12.6 48 1008
16:59 24.1 12.7 49 1007.9
17:09 24 12.3 48 1007.9
17:19 23.9 12.2 48 1007.8
17:29 23.8 12.8 50 1007.9
17:39 23.8 13.1 51 1007.8
17:49 23.7 13.3 52 1007.8
18:00 23.4 13.3 53 1007.7
18:09 23.2 13.4 54 1007.7
18:19 23 13.5 55 1007.7
18:30 22.7 13.5 56 1007.8
18:40 22.5 13.6 57 1007.5
18:49 22.2 13.6 58 1007.7
18:59 21.9 13.8 60 1007.6
19:10 21.6 13.8 61 1007.5
19:20 21.4 13.8 62 1007.4
19:29 21.2 13.6 62 1007.2
19:40 21 13.4 62 1007.2

DAY STATISTIC

2019-07-17
TEMPERATURE
AVERAGE
19.6
HIGH
26.1
13:08
LOW
12.3
05:35
PRESSURE
AVERAGE
1010.3
HIGH
1013.2
00:21
LOW
1007.2
19:29
DEWPOINT
AVERAGE
12.1
HIGH
14.9
12:38
LOW
9.9
05:24
HUMIDITY
AVERAGE
64
HIGH
87
05:55
LOW
43
15:09
TEMPERATURE (°C)
LOW
12.3
HIGH
26.1
AVERAGE
19.6
PRESSURE (hpa)
LOW
1007.2
HIGH
1013.2
AVERAGE
1010.3
DEVICE